Data for 06/12/2006

Time Sea-Level Adjusted Pressure Absolute Pressure Temperature Relative Humidity Dew Point   
(mb) (inHg) (mb) (inHg) (C) (F) (%) (C) (F)
00:05 1019 30.09 848 25.04 13.4 56 79 9.8 49.6
00:10 1019 30.09 848 25.04 13.4 56.1 79 9.9 49.7
00:15 1019 30.09 848 25.04 13.3 55.9 80 9.9 49.9
00:20 1019 30.09 848 25.04 13.2 55.8 80 9.9 49.9
00:25 1018 30.06 848 25.04 13.2 55.7 80 9.8 49.7
00:30 1019 30.09 848 25.04 13.2 55.8 80 9.9 49.8
00:35 1018 30.06 848 25.04 13.1 55.6 80 9.8 49.6
00:40 1018 30.06 847 25.01 13.1 55.5 80 9.8 49.6
00:45 1018 30.06 847 25.01 13 55.5 81 9.8 49.7
00:50 1018 30.06 847 25.01 13.1 55.5 80 9.6 49.3
00:55 1018 30.06 847 25.01 13.2 55.7 79 9.6 49.4
01:00 1018 30.06 847 25.01 13.2 55.7 80 9.7 49.5
01:05 1018 30.06 847 25.01 13.1 55.6 80 9.7 49.4
01:10 1018 30.06 847 25.01 13.1 55.5 80 9.7 49.4
01:15 1018 30.06 847 25.01 13 55.5 80 9.7 49.4
01:20 1018 30.06 847 25.01 13 55.5 80 9.6 49.4
01:25 1018 30.06 847 25.01 13 55.3 80 9.7 49.4
01:30 1018 30.06 847 25.01 12.9 55.1 81 9.7 49.5
01:35 1018 30.06 847 25.01 12.7 54.9 82 9.7 49.5
01:40 1018 30.06 847 25.01 12.6 54.6 83 9.7 49.5
01:45 1018 30.06 847 25.01 12.5 54.5 83 9.6 49.4
01:50 1018 30.06 847 25.01 12.5 54.4 83 9.7 49.5
01:55 1018 30.06 847 25.01 12.4 54.3 83 9.7 49.4
02:00 1018 30.06 847 25.01 12.4 54.3 83 9.7 49.4
02:05 1018 30.06 847 25.01 12.4 54.3 83 9.5 49.1
02:10 1018 30.06 847 25.01 12.4 54.4 82 9.5 49.1
02:15 1018 30.06 847 25.01 12.3 54.2 81 9.2 48.6
02:20 1018 30.06 847 25.01 12.3 54.2 81 9.1 48.5
02:25 1018 30.06 847 25.01 12.4 54.3 80 9.1 48.4
02:30 1018 30.06 847 25.01 12.4 54.3 80 9.1 48.4
02:35 1018 30.06 847 25.01 12.3 54.2 80 8.9 48.1
02:40 1018 30.06 848 25.04 12.4 54.2 80 9 48.2
02:45 1018 30.06 847 25.01 12.3 54.1 80 9 48.2
02:50 1018 30.06 847 25.01 12.3 54.1 80 9 48.2
02:55 1018 30.06 847 25.01 12.3 54.1 80 9 48.2
03:00 1018 30.06 847 25.01 12.2 54 81 9 48.2
03:05 1018 30.06 847 25.01 12.2 53.9 80 8.9 48
03:10 1018 30.06 847 25.01 12.2 54 80 8.9 48.1
03:15 1018 30.06 847 25.01 12.2 54 79 8.8 47.9
03:20 1018 30.06 847 25.01 12.2 54 79 8.8 47.8
03:25 1018 30.06 847 25.01 12.3 54.2 79 8.8 47.9
03:30 1018 30.06 847 25.01 12.3 54.2 79 8.7 47.7
03:35 1018 30.06 847 25.01 12.4 54.3 78 8.7 47.7
03:40 1018 30.06 847 25.01 12.4 54.4 78 8.7 47.7
03:45 1018 30.06 847 25.01 12.4 54.3 78 8.7 47.6
03:50 1018 30.06 847 25.01 12.3 54.1 79 8.8 47.8
03:55 1018 30.06 847 25.01 12.2 54 79 8.7 47.7
04:00 1018 30.06 847 25.01 12.2 53.9 80 8.8 47.8
04:05 1018 30.06 847 25.01 12.1 53.8 80 8.8 47.8
04:10 1018 30.06 847 25.01 12.1 53.8 80 8.8 47.8
04:15 1018 30.06 847 25.01 12 53.7 80 8.7 47.7
04:20 1018 30.06 847 25.01 12 53.7 80 8.7 47.7
04:25 1018 30.06 847 25.01 12 53.5 80 8.7 47.7
04:30 1018 30.06 847 25.01 11.9 53.5 80 8.7 47.6
04:35 1018 30.06 848 25.04 11.9 53.4 81 8.7 47.6
04:40 1019 30.09 848 25.04 11.8 53.3 81 8.7 47.7
04:45 1019 30.09 848 25.04 11.9 53.4 80 8.6 47.5
04:50 1019 30.09 848 25.04 11.9 53.4 80 8.6 47.4
04:55 1019 30.09 848 25.04 11.9 53.4 80 8.6 47.4
05:00 1019 30.09 848 25.04 11.9 53.4 79 8.4 47.2
05:05 1019 30.09 848 25.04 12 53.6 79 8.5 47.3
05:10 1019 30.09 848 25.04 12 53.5 79 8.4 47.1
05:15 1019 30.09 848 25.04 12 53.6 79 8.4 47.1
05:20 1019 30.09 848 25.04 12 53.5 79 8.4 47.2
05:25 1019 30.09 848 25.04 11.9 53.4 79 8.4 47.1
05:30 1019 30.09 848 25.04 11.9 53.4 80 8.5 47.3
05:35 1019 30.09 848 25.04 11.8 53.2 80 8.5 47.3
05:40 1019 30.09 848 25.04 11.8 53.2 81 8.6 47.4
05:45 1019 30.09 848 25.04 11.7 53.1 81 8.5 47.3
05:50 1019 30.09 848 25.04 11.7 53 81 8.5 47.3
05:55 1019 30.09 848 25.04 11.7 53.1 81 8.5 47.4
06:00 1019 30.09 848 25.04 11.8 53.3 80 8.6 47.4
06:05 1019 30.09 848 25.04 11.8 53.2 81 8.7 47.6
06:10 1019 30.09 848 25.04 11.8 53.2 81 8.7 47.6
06:15 1019 30.09 848 25.04 11.8 53.3 81 8.7 47.7
06:20 1019 30.09 848 25.04 11.9 53.5 80 8.7 47.6
06:25 1019 30.09 848 25.04 12 53.7 80 8.8 47.8
06:30 1019 30.09 848 25.04 12.1 53.7 80 8.8 47.9
06:35 1019 30.09 848 25.04 12.1 53.8 80 8.8 47.8
06:40 1019 30.09 848 25.04 12.3 54.1 79 8.8 47.8
06:45 1019 30.09 848 25.04 12.5 54.5 78 8.8 47.9
06:50 1019 30.09 848 25.04 12.7 54.8 77 8.8 47.9
06:55 1019 30.09 848 25.04 12.8 55.1 77 8.9 48.1
07:00 1019 30.09 848 25.04 12.9 55.2 77 9 48.1
07:05 1019 30.09 848 25.04 12.8 55 78 9 48.2
07:10 1019 30.09 849 25.07 12.7 54.9 78 9.1 48.3
07:15 1019 30.09 849 25.07 12.6 54.6 79 9 48.2
07:20 1019 30.09 849 25.07 12.5 54.6 79 9 48.2
07:25 1019 30.09 849 25.07 12.7 54.9 78 8.9 48
07:30 1019 30.09 849 25.07 13.1 55.6 76 9.1 48.4
07:35 1020 30.12 849 25.07 13.2 55.8 77 9.3 48.8
07:40 1020 30.12 849 25.07 13.2 55.7 77 9.2 48.5
07:45 1020 30.12 849 25.07 13.4 56 76 9.2 48.5
07:50 1020 30.12 849 25.07 13.8 56.9 74 9.4 48.9
07:55 1020 30.12 849 25.07 13.8 56.8 77 9.8 49.6
08:00 1020 30.12 849 25.07 13.2 55.7 79 9.5 49.2
08:05 1020 30.12 849 25.07 12.6 54.7 82 9.7 49.4
08:10 1020 30.12 849 25.07 12.7 54.8 82 9.8 49.6
08:15 1020 30.12 849 25.07 13 55.4 80 9.6 49.3
08:20 1020 30.12 849 25.07 13.3 55.9 78 9.5 49.2
08:25 1020 30.12 849 25.07 13 55.3 80 9.6 49.2
08:30 1020 30.12 849 25.07 13 55.4 80 9.6 49.2
08:35 1020 30.12 849 25.07 13.4 56 77 9.5 49.2
08:40 1020 30.12 849 25.07 14 57.2 73 9.4 48.9
08:45 1020 30.12 849 25.07 14.4 57.8 73 9.5 49.1
08:50 1020 30.12 849 25.07 14.5 58.2 72 9.7 49.4
08:55 1020 30.12 849 25.07 14.8 58.6 72 9.8 49.7
09:00 1020 30.12 849 25.07 14.8 58.7 71 9.7 49.4
09:05 1020 30.12 849 25.07 14.8 58.7 71 9.6 49.3
09:10 1020 30.12 849 25.07 14.8 58.6 71 9.6 49.2
09:15 1020 30.12 849 25.07 14.7 58.5 69 9.2 48.6
09:20 1020 30.12 849 25.07 14.6 58.3 71 9.6 49.2
09:25 1020 30.12 849 25.07 14.4 58 72 9.5 49
09:30 1020 30.12 849 25.07 14.6 58.2 71 9.5 49.1
09:35 1020 30.12 849 25.07 14.6 58.2 72 9.6 49.3
09:40 1020 30.12 849 25.07 14.7 58.5 72 9.7 49.4
09:45 1020 30.12 849 25.07 14.7 58.5 71 9.6 49.3
09:50 1020 30.12 849 25.07 14.8 58.6 70 9.5 49
09:55 1020 30.12 849 25.07 14.9 58.8 70 9.5 49.1
10:00 1020 30.12 849 25.07 14.9 58.9 70 9.6 49.2
10:05 1020 30.12 849 25.07 15.1 59.1 69 9.6 49.2
10:10 1020 30.12 849 25.07 15.2 59.3 69 9.5 49.1
10:15 1019 30.09 849 25.07 15.2 59.3 69 9.5 49.1
10:20 1020 30.12 849 25.07 15.4 59.8 67 9.4 48.9
10:25 1020 30.12 849 25.07 15.4 59.7 68 9.7 49.4
10:30 1020 30.12 849 25.07 15.6 60 68 9.8 49.6
10:35 1020 30.12 849 25.07 15.5 59.9 68 9.8 49.6
10:40 1020 30.12 849 25.07 15.5 59.9 68 9.7 49.4
10:45 1020 30.12 849 25.07 15.5 60 67 9.6 49.3
10:50 1019 30.09 849 25.07 15.9 60.5 67 9.7 49.5
10:55 1019 30.09 849 25.07 15.8 60.5 67 9.7 49.5
11:00 1019 30.09 849 25.07 15.8 60.4 66 9.5 49.1
11:05 1019 30.09 849 25.07 16 60.7 65 9.5 49.1
11:10 1019 30.09 849 25.07 16.1 61 65 9.6 49.4
11:15 1019 30.09 849 25.07 16.1 60.9 66 9.8 49.6
11:20 1020 30.12 849 25.07 16.3 61.4 65 9.8 49.7
11:25 1019 30.09 849 25.07 16.5 61.6 65 9.9 49.8
11:30 1019 30.09 849 25.07 16.5 61.7 65 9.9 49.8
11:35 1019 30.09 849 25.07 16.5 61.6 65 9.9 49.7
11:40 1019 30.09 849 25.07 16.7 62 65 10.1 50.3
11:45 1019 30.09 849 25.07 16.9 62.3 64 10.2 50.3
11:50 1019 30.09 849 25.07 17 62.6 64 10.3 50.5
11:55 1019 30.09 849 25.07 17.1 62.8 64 10.3 50.6
12:00 1019 30.09 849 25.07 17.1 62.7 64 10.3 50.5
12:05 1019 30.09 849 25.07 17 62.5 64 10.1 50.2
12:10 1019 30.09 849 25.07 17.3 63.1 63 10.3 50.6
12:15 1019 30.09 849 25.07 17.4 63.3 62 10.2 50.3
12:20 1019 30.09 849 25.07 17.8 64 62 10.5 50.8
12:25 1019 30.09 849 25.07 17.8 64 62 10.6 51
12:30 1019 30.09 849 25.07 18 64.5 62 10.6 51.1
12:35 1019 30.09 849 25.07 18.1 64.5 62 10.8 51.5
12:40 1019 30.09 849 25.07 18.2 64.7 61 10.7 51.3
12:45 1019 30.09 849 25.07 18.2 64.8 59 10.3 50.6
12:50 1019 30.09 849 25.07 18.4 65 61 10.7 51.2
12:55 1019 30.09 849 25.07 18.3 64.9 61 10.8 51.4
13:00 1019 30.09 849 25.07 18.5 65.4 61 10.9 51.7
13:05 1019 30.09 849 25.07 18.6 65.5 62 11.2 52.2
13:10 1019 30.09 849 25.07 18.9 66 59 10.9 51.5
13:15 1019 30.09 848 25.04 19 66.2 59 10.8 51.5
13:20 1019 30.09 848 25.04 18.9 66 59 10.7 51.2
13:25 1019 30.09 848 25.04 19.1 66.4 58 10.7 51.2
13:30 1019 30.09 848 25.04 19.2 66.6 58 10.9 51.6
13:35 1019 30.09 848 25.04 19.5 67.1 57 10.9 51.6
13:40 1019 30.09 848 25.04 19.6 67.2 58 11.1 52
13:45 1019 30.09 848 25.04 19.4 66.9 57 10.8 51.5
13:50 1019 30.09 848 25.04 19.6 67.3 58 11.3 52.3
13:55 1019 30.09 848 25.04 19.6 67.3 58 11.3 52.4
14:00 1019 30.09 848 25.04 19.7 67.5 57 11.2 52.1
14:05 1019 30.09 848 25.04 19.7 67.4 59 11.6 53
14:10 1019 30.09 848 25.04 19.9 67.9 58 11.5 52.7
14:15 1019 30.09 848 25.04 20 67.9 58 11.6 52.9
14:20 1019 30.09 848 25.04 19.9 67.9 59 11.8 53.3
14:25 1019 30.09 848 25.04 20 68 59 11.8 53.3
14:30 1019 30.09 848 25.04 19.8 67.7 59 11.8 53.3
14:35 1019 30.09 848 25.04 20.5 68.9 57 11.7 53.1
14:40 1019 30.09 848 25.04 20.7 69.2 57 11.8 53.3
14:45 1019 30.09 848 25.04 20.2 68.3 59 12.1 53.8
14:50 1019 30.09 848 25.04 20.4 68.7 59 12.1 53.8
14:55 1019 30.09 848 25.04 20.5 68.8 58 12 53.6
15:00 1019 30.09 848 25.04 20.5 68.9 57 11.8 53.3
15:05 1019 30.09 848 25.04 20.8 69.4 57 12 53.5
15:10 1019 30.09 848 25.04 20.7 69.2 57 11.9 53.5
15:15 1019 30.09 848 25.04 20.4 68.7 57 11.7 53
15:20 1019 30.09 848 25.04 20.6 69 57 11.9 53.4
15:25 1019 30.09 848 25.04 20.5 68.8 57 11.7 53
15:30 1019 30.09 848 25.04 20.4 68.8 57 11.7 53.1
15:35 1019 30.09 848 25.04 20.3 68.6 57 11.8 53.2
15:40 1019 30.09 848 25.04 20.4 68.8 56 11.5 52.8
15:45 1019 30.09 848 25.04 20.2 68.4 58 11.7 53.1
15:50 1019 30.09 848 25.04 20.5 68.9 57 11.7 53.1
15:55 1019 30.09 848 25.04 20.3 68.6 58 12 53.5
16:00 1019 30.09 848 25.04 20.4 68.8 57 11.9 53.3
16:05 1019 30.09 848 25.04 20.3 68.6 59 12 53.7
16:10 1019 30.09 848 25.04 20.1 68.2 57 11.6 52.8
16:15 1018 30.06 848 25.04 20.1 68.3 58 11.8 53.3
16:20 1018 30.06 848 25.04 20.2 68.3 59 11.9 53.5
16:25 1018 30.06 848 25.04 20 68 59 11.9 53.3
16:30 1018 30.06 848 25.04 20.1 68.2 58 11.7 53.1
16:35 1018 30.06 848 25.04 20.3 68.6 59 12.1 53.7
16:40 1019 30.09 848 25.04 20.3 68.5 59 12 53.6
16:45 1018 30.06 848 25.04 20.4 68.6 58 11.8 53.3
16:50 1018 30.06 848 25.04 20.4 68.7 58 12 53.6
16:55 1018 30.06 848 25.04 20.2 68.4 58 11.8 53.2
17:00 1018 30.06 848 25.04 20.3 68.5 58 11.9 53.4
17:05 1018 30.06 848 25.04 20.2 68.4 59 12.1 53.7
17:10 1018 30.06 847 25.01 20.2 68.3 59 12.1 53.7
17:15 1018 30.06 847 25.01 20.1 68.1 60 12.1 53.8
17:20 1018 30.06 847 25.01 20.2 68.3 59 12 53.5
17:25 1018 30.06 847 25.01 20.4 68.7 58 11.9 53.5
17:30 1018 30.06 847 25.01 20.4 68.7 58 12 53.7
17:35 1018 30.06 847 25.01 20.5 69 58 12 53.6
17:40 1018 30.06 848 25.04 20.6 69 58 12.2 54
17:45 1018 30.06 847 25.01 20.5 69 58 12.2 54
17:50 1018 30.06 847 25.01 20.6 69 58 12.1 53.8
17:55 1018 30.06 847 25.01 20.7 69.2 58 12.2 54
18:00 1018 30.06 847 25.01 20.6 69.1 57 12.1 53.7
18:05 1018 30.06 847 25.01 20.7 69.2 58 12.3 54.1
18:10 1018 30.06 847 25.01 20.8 69.4 57 12 53.5
18:15 1018 30.06 847 25.01 20.7 69.3 58 12.2 54
18:20 1018 30.06 847 25.01 20.6 69.1 58 12.3 54.1
18:25 1018 30.06 847 25.01 20.4 68.8 59 12.2 53.9
18:30 1018 30.06 847 25.01 20.5 68.9 59 12.4 54.4
18:35 1018 30.06 847 25.01 20.4 68.8 60 12.4 54.3
18:40 1018 30.06 847 25.01 20.4 68.7 59 12.4 54.2
18:45 1018 30.06 847 25.01 20.3 68.6 59 12.2 54
18:50 1018 30.06 847 25.01 20.4 68.7 59 12.3 54.1
18:55 1018 30.06 847 25.01 20.4 68.7 59 12.2 53.9
19:00 1018 30.06 847 25.01 20.5 68.8 59 12.3 54.1
19:05 1018 30.06 847 25.01 20.5 68.8 59 12.2 53.9
19:10 1018 30.06 847 25.01 20.5 68.9 59 12.4 54.2
19:15 1018 30.06 847 25.01 20.5 68.8 59 12.3 54.2
19:20 1018 30.06 847 25.01 20.5 69 59 12.5 54.5
19:25 1018 30.06 847 25.01 20.5 68.8 59 12.4 54.3
19:30 1018 30.06 847 25.01 20.4 68.7 60 12.5 54.4
19:35 1018 30.06 847 25.01 20.4 68.8 60 12.5 54.5
19:40 1018 30.06 847 25.01 20.3 68.6 60 12.3 54.2
19:45 1018 30.06 847 25.01 20.3 68.5 60 12.4 54.3
19:50 1018 30.06 848 25.04 20.3 68.5 61 12.5 54.6
19:55 1018 30.06 847 25.01 20.2 68.3 61 12.5 54.4
20:00 1018 30.06 847 25.01 20.1 68.2 61 12.4 54.3
20:05 1018 30.06 848 25.04 20.1 68.1 60 12.2 54
20:10 1018 30.06 848 25.04 20 68.1 60 12.2 53.9
20:15 1018 30.06 847 25.01 20 68 61 12.4 54.3
20:20 1018 30.06 848 25.04 19.9 67.8 61 12.3 54.2
20:25 1019 30.09 848 25.04 19.8 67.7 62 12.4 54.3
20:30 1018 30.06 848 25.04 19.8 67.6 62 12.4 54.3
20:35 1018 30.06 848 25.04 19.7 67.5 62 12.4 54.4
20:40 1018 30.06 848 25.04 19.7 67.4 62 12.4 54.3
20:45 1018 30.06 848 25.04 19.6 67.3 62 12.3 54.2
20:50 1019 30.09 848 25.04 19.5 67.1 63 12.3 54.1
20:55 1019 30.09 848 25.04 19.4 67 63 12.3 54.1
21:00 1019 30.09 848 25.04 19.4 66.9 63 12.3 54.2
21:05 1019 30.09 848 25.04 19.3 66.7 63 12.1 53.9
21:10 1019 30.09 848 25.04 19.4 67 63 12.2 54
21:15 1018 30.06 848 25.04 19.4 66.9 63 12.3 54.2
21:20 1019 30.09 848 25.04 19.2 66.6 65 12.5 54.6
21:25 1019 30.09 848 25.04 19.2 66.5 65 12.4 54.4
21:30 1019 30.09 848 25.04 19.2 66.5 65 12.6 54.6
21:35 1019 30.09 848 25.04 19.2 66.5 65 12.4 54.4
21:40 1019 30.09 848 25.04 19.2 66.6 65 12.5 54.5
21:45 1019 30.09 848 25.04 19.2 66.5 65 12.6 54.7
21:50 1019 30.09 848 25.04 19.1 66.3 66 12.6 54.7
21:55 1019 30.09 848 25.04 19.1 66.4 66 12.7 54.8
22:00 1019 30.09 848 25.04 19.1 66.4 66 12.8 55
22:05 1019 30.09 848 25.04 19.1 66.4 67 12.9 55.2
22:10 1019 30.09 848 25.04 19.1 66.3 67 13 55.4
22:15 1019 30.09 848 25.04 19 66.2 68 12.9 55.3
22:20 1019 30.09 848 25.04 19 66.1 68 13.1 55.5
22:25 1019 30.09 848 25.04 18.7 65.7 69 12.9 55.3
22:30 1019 30.09 848 25.04 18.7 65.6 69 13 55.5
22:35 1019 30.09 848 25.04 18.7 65.6 70 13.1 55.5
22:40 1019 30.09 848 25.04 18.6 65.6 70 13.1 55.7
22:45 1019 30.09 848 25.04 18.6 65.5 70 13.1 55.6
22:50 1019 30.09 848 25.04 18.6 65.4 71 13.2 55.7
22:55 1019 30.09 848 25.04 18.6 65.4 71 13.3 55.9
23:00 1019 30.09 848 25.04 18.5 65.3 71 13.3 56
23:05 1019 30.09 848 25.04 18.4 65.1 72 13.3 55.9
23:10 1019 30.09 848 25.04 18.4 65 72 13.3 56
23:15 1019 30.09 848 25.04 18.4 65.1 72 13.3 56
23:20 1019 30.09 848 25.04 18.3 64.9 73 13.4 56.1
23:25 1019 30.09 848 25.04 18.3 64.9 73 13.4 56.2
23:30 1019 30.09 848 25.04 18.1 64.6 74 13.5 56.2
23:35 1019 30.09 848 25.04 18.1 64.5 74 13.5 56.2
23:40 1019 30.09 848 25.04 17.9 64.3 75 13.5 56.3
23:45 1019 30.09 848 25.04 17.9 64.3 75 13.4 56.2
23:50 1019 30.09 848 25.04 17.9 64.1 75 13.5 56.3
23:55 1019 30.09 848 25.04 17.9 64.1 76 13.6 56.4
24:00 1019 30.09 848 25.04 17.7 63.9 76 13.5 56.3